Time;durP1;ratioP1;P1;durP2;ratioP2;P2;SDS_P1;SDS_P2;PMS_P1;PMS_P2;Temp;Humidity;BMP_temperature;BMP_pressure;BME280_temperature;BME280_humidity;BME280_pressure;Samples;Min_cycle;Max_cycle;Signal;HPM_P1;HPM_P2
2022/08/30 00:03:14;;;;;;;1.83;0.70;;;17.30;86.70;;;;;;5062554;28;20379;-70
2022/08/30 00:05:43;;;;;;;2.90;0.63;;;17.30;87.00;;;;;;5022315;28;20490;-70
2022/08/30 00:08:12;;;;;;;1.88;0.70;;;17.30;86.50;;;;;;5015489;28;20049;-70
2022/08/30 00:10:39;;;;;;;2.35;0.82;;;17.30;86.30;;;;;;5001939;28;20186;-70
2022/08/30 00:13:07;;;;;;;2.10;0.60;;;17.20;86.10;;;;;;5029900;28;20049;-70
2022/08/30 00:15:33;;;;;;;0.82;0.60;;;17.20;86.40;;;;;;5015737;28;20424;-70
2022/08/30 00:17:59;;;;;;;0.80;0.45;;;17.20;86.00;;;;;;5016202;28;20140;-69
2022/08/30 00:20:29;;;;;;;1.42;0.60;;;17.10;86.30;;;;;;4995591;28;20195;-69
2022/08/30 00:22:56;;;;;;;1.67;0.70;;;17.10;86.10;;;;;;5023737;28;20050;-70
2022/08/30 00:25:24;;;;;;;2.80;0.73;;;17.20;85.70;;;;;;5020426;28;20057;-69
2022/08/30 00:27:50;;;;;;;2.28;0.90;;;17.10;85.60;;;;;;5017538;28;20140;-70
2022/08/30 00:30:18;;;;;;;1.95;0.70;;;17.10;85.30;;;;;;5009586;28;20086;-70
2022/08/30 00:32:45;;;;;;;1.65;0.70;;;17.00;85.60;;;;;;5038843;28;20104;-69
2022/08/30 00:35:13;;;;;;;1.00;0.70;;;17.00;85.70;;;;;;5014557;28;20052;-72
2022/08/30 00:37:40;;;;;;;;;;;17.00;85.80;;;;;;5032566;28;20038;-69
2022/08/30 00:40:08;;;;;;;1.17;0.65;;;16.90;86.00;;;;;;5013967;28;19913;-70
2022/08/30 00:42:35;;;;;;;1.52;0.80;;;16.90;86.20;;;;;;5018145;28;20045;-69
2022/08/30 00:45:15;;;;;;;2.13;0.93;;;16.80;86.30;;;;;;5009625;28;20081;-69
2022/08/30 00:47:40;;;;;;;1.08;0.80;;;16.80;86.00;;;;;;5012765;28;20053;-69
2022/08/30 00:50:07;;;;;;;1.50;0.80;;;16.70;86.20;;;;;;5010898;28;20420;-69
2022/08/30 00:52:34;;;;;;;1.23;0.80;;;16.60;87.10;;;;;;4997969;28;20074;-69
2022/08/30 00:55:00;;;;;;;1.75;0.90;;;16.60;87.40;;;;;;5015218;28;20037;-69
2022/08/30 00:57:27;;;;;;;1.10;0.77;;;16.60;87.20;;;;;;5005621;28;20057;-69
2022/08/30 00:59:53;;;;;;;2.65;0.80;;;16.60;87.30;;;;;;5008755;28;20042;-69
2022/08/30 01:02:20;;;;;;;3.00;0.90;;;16.70;87.00;;;;;;5009379;28;20498;-69
2022/08/30 01:04:46;;;;;;;2.38;1.10;;;16.70;87.10;;;;;;4996421;28;20050;-69
2022/08/30 01:07:11;;;;;;;4.78;1.20;;;16.80;86.90;;;;;;5041687;28;20049;-69
2022/08/30 01:09:37;;;;;;;2.25;1.02;;;16.80;87.30;;;;;;5002685;28;20128;-69
2022/08/30 01:12:03;;;;;;;1.85;0.95;;;16.70;87.50;;;;;;5011130;28;20049;-69
2022/08/30 01:14:32;;;;;;;1.60;1.10;;;16.80;87.30;;;;;;4983606;28;20508;-70
2022/08/30 01:17:00;;;;;;;2.15;1.20;;;16.80;87.00;;;;;;5007940;28;20176;-69
2022/08/30 01:19:25;;;;;;;2.05;1.10;;;16.80;87.10;;;;;;5044958;28;20037;-70
2022/08/30 01:21:55;;;;;;;3.35;1.25;;;16.70;87.20;;;;;;5018673;28;20188;-69
2022/08/30 01:24:21;;;;;;;1.90;1.13;;;16.70;88.00;;;;;;5005107;28;20076;-70
2022/08/30 01:26:47;;;;;;;1.60;1.25;;;16.70;88.00;;;;;;5011243;28;20107;-69
2022/08/30 01:29:15;;;;;;;2.33;1.10;;;16.60;88.50;;;;;;5009020;28;20052;-70
2022/08/30 01:31:41;;;;;;;2.03;1.00;;;16.60;88.50;;;;;;5014514;28;20487;-70
2022/08/30 01:34:07;;;;;;;1.48;1.10;;;16.60;88.10;;;;;;5008158;28;20041;-71
2022/08/30 01:36:36;;;;;;;3.15;1.23;;;16.70;88.30;;;;;;5041923;28;20779;-71
2022/08/30 01:39:02;;;;;;;2.53;1.23;;;16.70;88.00;;;;;;4997367;28;20448;-71
2022/08/30 01:41:30;;;;;;;2.22;1.17;;;16.60;88.70;;;;;;5011266;28;20076;-71
2022/08/30 01:43:58;;;;;;;1.30;1.07;;;16.60;88.40;;;;;;5043948;28;20049;-71
2022/08/30 01:46:26;;;;;;;3.28;1.40;;;16.60;88.60;;;;;;5011322;28;20282;-69
2022/08/30 01:48:55;;;;;;;1.75;1.17;;;16.60;89.00;;;;;;5016085;28;20058;-70
2022/08/30 01:51:21;;;;;;;1.70;1.30;;;16.50;88.80;;;;;;5017209;28;20045;-70
2022/08/30 01:53:47;;;;;;;1.63;1.30;;;16.60;89.20;;;;;;4998663;28;20122;-70
2022/08/30 01:56:14;;;;;;;2.58;1.30;;;16.50;89.50;;;;;;5057516;28;20455;-70
2022/08/30 01:58:40;;;;;;;2.30;1.30;;;16.60;89.00;;;;;;5004251;28;20374;-69
2022/08/30 02:01:07;;;;;;;3.38;1.40;;;16.60;88.90;;;;;;5013132;28;20042;-70
2022/08/30 02:03:34;;;;;;;2.40;1.48;;;16.60;88.90;;;;;;5012852;28;20425;-70
2022/08/30 02:06:08;;;;;;;2.05;1.50;;;16.60;88.70;;;;;;4996944;28;20046;-70
2022/08/30 02:08:34;;;;;;;2.50;1.30;;;16.60;88.60;;;;;;5013791;28;20052;-70
2022/08/30 02:10:59;;;;;;;2.55;1.50;;;16.50;89.00;;;;;;4996043;28;20050;-71
2022/08/30 02:13:26;;;;;;;3.38;1.90;;;16.50;89.20;;;;;;5010676;28;20088;-71
2022/08/30 02:15:53;;;;;;;2.60;1.45;;;16.50;89.50;;;;;;5011533;28;20058;-71
2022/08/30 02:18:19;;;;;;;3.50;1.67;;;16.50;89.50;;;;;;5009683;28;20106;-72
2022/08/30 02:20:45;;;;;;;2.00;1.70;;;16.50;89.30;;;;;;5037727;28;20065;-69
2022/08/30 02:23:11;;;;;;;3.22;1.70;;;16.50;89.40;;;;;;5014099;28;20056;-70
2022/08/30 02:25:37;;;;;;;3.47;2.20;;;16.50;89.60;;;;;;4997109;28;20659;-69
2022/08/30 02:28:03;;;;;;;4.68;2.95;;;16.40;89.30;;;;;;5015103;28;20045;-70
2022/08/30 02:30:29;;;;;;;5.15;3.83;;;16.50;89.60;;;;;;5031408;28;20045;-70
2022/08/30 02:32:55;;;;;;;6.45;4.05;;;16.50;89.60;;;;;;4999924;28;20052;-70
2022/08/30 02:35:21;;;;;;;5.75;4.47;;;16.40;89.90;;;;;;4994994;28;20042;-69
2022/08/30 02:37:46;;;;;;;6.53;4.78;;;16.40;89.60;;;;;;5011398;28;20049;-69
2022/08/30 02:40:12;;;;;;;5.35;4.65;;;16.40;89.60;;;;;;5024223;28;20061;-70
2022/08/30 02:42:38;;;;;;;5.30;4.40;;;16.40;90.00;;;;;;4996435;28;20050;-70
2022/08/30 02:45:04;;;;;;;6.10;4.70;;;16.30;90.10;;;;;;5014513;28;20056;-74
2022/08/30 02:47:30;;;;;;;5.13;3.85;;;16.30;89.90;;;;;;5015894;28;20045;-73
2022/08/30 02:49:56;;;;;;;6.20;4.05;;;16.30;90.10;;;;;;5001637;28;20083;-73
2022/08/30 02:52:22;;;;;;;5.03;3.83;;;16.40;90.10;;;;;;5025462;28;20046;-74
2022/08/30 02:54:47;;;;;;;5.63;3.63;;;16.40;90.30;;;;;;5002589;28;20038;-74
2022/08/30 02:57:13;;;;;;;6.05;4.82;;;16.40;90.10;;;;;;5035394;28;20052;-73
2022/08/30 02:59:42;;;;;;;5.03;4.43;;;16.40;90.40;;;;;;4990893;28;20069;-73
2022/08/30 03:02:11;;;;;;;4.97;4.47;;;16.30;90.50;;;;;;5027254;28;20052;-73
2022/08/30 03:04:38;;;;;;;5.32;4.30;;;16.30;90.70;;;;;;5034515;28;20046;-73
2022/08/30 03:07:07;;;;;;;5.32;4.68;;;16.30;90.60;;;;;;5008709;28;20467;-73
2022/08/30 03:09:33;;;;;;;6.30;4.40;;;16.30;90.20;;;;;;5000405;28;20099;-73
2022/08/30 03:11:59;;;;;;;5.15;4.43;;;16.30;90.20;;;;;;5010749;28;20046;-74
2022/08/30 03:14:25;;;;;;;4.88;4.10;;;16.40;90.10;;;;;;5017937;28;20064;-74
2022/08/30 03:16:51;;;;;;;7.90;4.57;;;16.40;90.20;;;;;;5023287;28;20042;-73
2022/08/30 03:19:17;;;;;;;10.95;4.82;;;16.40;90.20;;;;;;5016856;28;20125;-73
2022/08/30 03:21:43;;;;;;;6.60;4.25;;;16.40;90.10;;;;;;5017515;28;20073;-74
2022/08/30 03:24:09;;;;;;;5.00;4.50;;;16.40;90.10;;;;;;5022500;28;20057;-74
2022/08/30 03:26:35;;;;;;;5.82;4.63;;;16.30;90.30;;;;;;5033204;28;20050;-74
2022/08/30 03:29:01;;;;;;;7.32;4.45;;;16.30;90.10;;;;;;5001263;28;20045;-74
2022/08/30 03:31:26;;;;;;;7.85;4.80;;;16.40;90.00;;;;;;5000285;28;20145;-74
2022/08/30 03:33:52;;;;;;;6.25;5.25;;;16.40;90.00;;;;;;4995782;28;20125;-74
2022/08/30 03:36:18;;;;;;;6.53;5.28;;;16.30;89.90;;;;;;5021899;28;20501;-74
2022/08/30 03:38:44;;;;;;;6.13;5.10;;;16.30;89.90;;;;;;5001510;28;20050;-74
2022/08/30 03:41:10;;;;;;;7.05;6.25;;;16.30;90.00;;;;;;5011728;28;20050;-74
2022/08/30 03:43:36;;;;;;;7.97;6.63;;;16.20;89.90;;;;;;5011058;28;20482;-74
2022/08/30 03:46:02;;;;;;;7.13;5.78;;;16.20;90.10;;;;;;5038643;28;20045;-75
2022/08/30 03:48:28;;;;;;;11.30;7.32;;;16.20;90.20;;;;;;5024306;28;20093;-77
2022/08/30 03:50:54;;;;;;;8.20;6.97;;;16.20;90.20;;;;;;5000659;28;20073;-73
2022/08/30 03:53:22;;;;;;;8.77;7.35;;;16.20;90.20;;;;;;4999051;28;20180;-73
2022/08/30 03:55:48;;;;;;;14.73;8.38;;;16.20;90.40;;;;;;5016995;28;20052;-73
2022/08/30 03:58:13;;;;;;;11.15;8.27;;;16.20;90.10;;;;;;5017343;28;20046;-74
2022/08/30 04:00:39;;;;;;;10.65;7.93;;;16.20;90.20;;;;;;5010096;28;20057;-75
2022/08/30 04:03:05;;;;;;;11.68;8.48;;;16.20;90.40;;;;;;5002805;28;20433;-77
2022/08/30 04:05:31;;;;;;;10.60;8.75;;;16.20;90.20;;;;;;5029059;28;20049;-76
2022/08/30 04:07:56;;;;;;;10.27;8.18;;;16.20;90.10;;;;;;4994473;28;20061;-76
2022/08/30 04:10:22;;;;;;;10.98;8.75;;;16.20;90.20;;;;;;5015737;28;20045;-76
2022/08/30 04:12:48;;;;;;;9.88;8.50;;;16.20;90.20;;;;;;5045480;28;20049;-76
2022/08/30 04:15:15;;;;;;;10.65;8.73;;;16.10;90.30;;;;;;5012208;28;20045;-75
2022/08/30 04:17:41;;;;;;;9.85;8.35;;;16.10;90.30;;;;;;5014238;28;20041;-75
2022/08/30 04:20:07;;;;;;;9.55;8.10;;;16.10;90.40;;;;;;4999262;28;20065;-73
2022/08/30 04:22:33;;;;;;;11.13;8.90;;;16.10;90.40;;;;;;4999374;28;20050;-73
2022/08/30 04:24:59;;;;;;;10.07;8.57;;;16.00;90.40;;;;;;4999129;28;20103;-74
2022/08/30 04:27:24;;;;;;;12.38;8.57;;;16.00;90.40;;;;;;5033849;28;20034;-74
2022/08/30 04:29:50;;;;;;;11.02;7.97;;;16.10;90.40;;;;;;5012373;28;20614;-74
2022/08/30 04:32:16;;;;;;;8.63;7.55;;;16.00;90.60;;;;;;5039664;28;20041;-74
2022/08/30 04:34:42;;;;;;;8.32;7.15;;;16.00;90.60;;;;;;5023642;28;20384;-74
2022/08/30 04:37:07;;;;;;;7.63;6.43;;;16.00;90.60;;;;;;5007826;28;20041;-74
2022/08/30 04:39:33;;;;;;;7.53;6.32;;;16.00;90.60;;;;;;5012453;28;20485;-73
2022/08/30 04:42:02;;;;;;;7.10;6.30;;;15.90;90.50;;;;;;5011181;28;20108;-74
2022/08/30 04:44:27;;;;;;;7.18;6.25;;;15.90;90.50;;;;;;5041014;28;20391;-73
2022/08/30 04:46:53;;;;;;;8.18;6.50;;;15.90;90.50;;;;;;5009115;28;20045;-74
2022/08/30 04:49:19;;;;;;;9.30;7.03;;;15.80;90.50;;;;;;5039252;28;20051;-74
2022/08/30 04:51:45;;;;;;;9.02;6.90;;;15.90;90.50;;;;;;5021378;28;20387;-74
2022/08/30 04:54:11;;;;;;;9.73;7.85;;;15.80;90.60;;;;;;4982188;28;20052;-74
2022/08/30 04:56:36;;;;;;;10.93;8.13;;;15.80;90.70;;;;;;5010474;28;20740;-74
2022/08/30 04:59:02;;;;;;;10.55;7.35;;;15.80;90.80;;;;;;5017605;28;20053;-74
2022/08/30 05:01:32;;;;;;;9.75;7.13;;;15.80;90.70;;;;;;5006207;28;20045;-74
2022/08/30 05:03:58;;;;;;;10.93;7.75;;;15.90;90.80;;;;;;4999419;28;20056;-73
2022/08/30 05:06:26;;;;;;;12.30;8.13;;;15.90;90.70;;;;;;5044499;28;20483;-75
2022/08/30 05:08:52;;;;;;;11.88;7.80;;;15.80;90.90;;;;;;5022970;28;20053;-74
2022/08/30 05:11:18;;;;;;;11.75;7.60;;;15.90;91.00;;;;;;5024332;28;20045;-74
2022/08/30 05:13:44;;;;;;;14.10;8.65;;;15.90;90.90;;;;;;5010015;28;20106;-75
2022/08/30 05:16:12;;;;;;;13.23;8.25;;;15.90;90.90;;;;;;5009201;28;20042;-74
2022/08/30 05:18:37;;;;;;;13.10;8.25;;;15.90;90.90;;;;;;5011583;28;20042;-74
2022/08/30 05:21:26;;;;;;;12.15;8.18;;;15.90;91.00;;;;;;5020712;28;20122;-76
2022/08/30 05:23:53;;;;;;;14.27;9.02;;;15.90;91.20;;;;;;5032974;28;20149;-74
2022/08/30 05:26:22;;;;;;;17.45;9.48;;;15.90;91.30;;;;;;5013555;28;20858;-75
2022/08/30 05:28:48;;;;;;;15.32;9.55;;;15.90;91.30;;;;;;5008615;28;20045;-75
2022/08/30 05:31:22;;;;;;;17.50;9.90;;;15.90;91.40;;;;;;4996447;28;20169;-73
2022/08/30 05:33:50;;;;;;;15.40;9.85;;;15.90;91.30;;;;;;5020065;28;20056;-75
2022/08/30 05:36:18;;;;;;;20.70;9.97;;;16.00;91.10;;;;;;5011634;28;20123;-75
2022/08/30 05:38:45;;;;;;;;;;;16.00;91.00;;;;;;5005541;28;20056;-74
2022/08/30 05:41:12;;;;;;;16.52;10.30;;;16.00;91.20;;;;;;5044115;28;19932;-74
2022/08/30 05:43:39;;;;;;;19.05;10.65;;;16.00;91.30;;;;;;5021059;28;20190;-75
2022/08/30 05:46:09;;;;;;;20.35;10.85;;;16.00;91.30;;;;;;5038696;28;20052;-74
2022/08/30 05:48:37;;;;;;;17.27;10.40;;;16.00;91.30;;;;;;4981277;28;20037;-74
2022/08/30 05:51:14;;;;;;;19.60;10.90;;;16.10;91.10;;;;;;5011984;28;20060;-75
2022/08/30 05:53:41;;;;;;;18.45;10.55;;;16.10;91.10;;;;;;5034302;28;20079;-74
2022/08/30 05:56:10;;;;;;;17.52;10.50;;;16.10;91.30;;;;;;5004151;28;20080;-74
2022/08/30 05:58:37;;;;;;;18.23;10.63;;;16.10;91.30;;;;;;5020054;28;20045;-75
2022/08/30 06:01:04;;;;;;;18.50;10.63;;;16.10;91.40;;;;;;5024742;28;20041;-74
2022/08/30 06:03:31;;;;;;;18.40;10.82;;;16.20;91.40;;;;;;5003032;28;20225;-74
2022/08/30 06:05:59;;;;;;;18.55;10.73;;;16.10;91.60;;;;;;5010167;28;20045;-74
2022/08/30 06:08:26;;;;;;;19.53;11.00;;;16.10;91.50;;;;;;5009789;28;20049;-73
2022/08/30 06:10:53;;;;;;;20.02;11.85;;;16.10;91.50;;;;;;5021040;28;20049;-74
2022/08/30 06:13:21;;;;;;;23.33;12.30;;;16.10;91.50;;;;;;5028672;28;20059;-74
2022/08/30 06:15:48;;;;;;;22.00;11.55;;;16.20;91.50;;;;;;4995767;28;20041;-74
2022/08/30 06:18:15;;;;;;;18.73;11.32;;;16.20;91.50;;;;;;5012370;28;20072;-74
2022/08/30 06:20:43;;;;;;;22.73;12.13;;;16.20;91.70;;;;;;5026487;28;20551;-74
2022/08/30 06:23:10;;;;;;;21.90;12.18;;;16.20;91.60;;;;;;5021190;28;20076;-74
2022/08/30 06:25:39;;;;;;;24.80;12.18;;;16.30;91.50;;;;;;5023998;28;20050;-75
2022/08/30 06:28:06;;;;;;;19.83;11.70;;;16.30;91.40;;;;;;5003954;28;20042;-74
2022/08/30 06:30:33;;;;;;;21.05;12.15;;;16.40;91.50;;;;;;5027281;28;20053;-74
2022/08/30 06:33:01;;;;;;;22.38;12.60;;;16.40;91.50;;;;;;5028992;28;20053;-75
2022/08/30 06:35:28;;;;;;;21.85;12.52;;;16.50;91.30;;;;;;4992936;28;20372;-74
2022/08/30 06:37:55;;;;;;;22.80;12.43;;;16.50;91.30;;;;;;5013410;28;20052;-74
2022/08/30 06:40:22;;;;;;;23.48;12.45;;;16.50;91.40;;;;;;5030648;28;20041;-74
2022/08/30 06:42:50;;;;;;;17.40;10.70;;;16.50;91.50;;;;;;5026866;28;20046;-74
2022/08/30 06:45:17;;;;;;;17.08;10.40;;;16.50;91.30;;;;;;5014719;28;20045;-73
2022/08/30 06:47:44;;;;;;;17.95;10.48;;;16.60;91.40;;;;;;5020944;28;20056;-76
2022/08/30 06:50:12;;;;;;;18.25;10.40;;;16.70;91.30;;;;;;4992447;28;20144;-73
2022/08/30 06:52:41;;;;;;;16.58;9.45;;;16.70;91.40;;;;;;5033206;28;20085;-73
2022/08/30 06:55:09;;;;;;;13.93;9.30;;;16.70;91.10;;;;;;5025059;28;20132;-74
2022/08/30 06:57:36;;;;;;;15.95;10.43;;;16.90;91.00;;;;;;5013385;28;20047;-73
2022/08/30 07:00:05;;;;;;;16.90;10.05;;;16.90;91.00;;;;;;5005954;28;20045;-73
2022/08/30 07:02:32;;;;;;;;;;;17.00;91.30;;;;;;5028740;28;20478;-76
2022/08/30 07:05:01;;;;;;;14.57;9.07;;;16.90;91.20;;;;;;5060418;28;19924;-76
2022/08/30 07:07:27;;;;;;;13.98;9.02;;;17.10;91.10;;;;;;5019228;28;20489;-76
2022/08/30 07:09:54;;;;;;;14.30;8.60;;;17.00;91.10;;;;;;5007691;28;20073;-76
2022/08/30 07:12:21;;;;;;;12.05;7.60;;;17.10;90.90;;;;;;5041621;28;20481;-75
2022/08/30 07:14:48;;;;;;;11.45;8.48;;;17.20;91.10;;;;;;5015531;28;20143;-75
2022/08/30 07:20:02;;;;;;;11.60;7.63;;;17.30;90.70;;;;;;5022520;28;20431;-74
2022/08/30 07:22:31;;;;;;;10.05;6.90;;;17.30;90.70;;;;;;5016470;28;20625;-72
2022/08/30 07:24:58;;;;;;;10.85;7.32;;;17.40;90.60;;;;;;5015357;28;20056;-77
2022/08/30 07:27:25;;;;;;;9.95;6.68;;;17.50;90.70;;;;;;5026383;28;20049;-75
2022/08/30 07:29:52;;;;;;;8.60;6.70;;;17.50;90.40;;;;;;5024827;28;20046;-76
2022/08/30 07:32:17;;;;;;;10.38;7.00;;;17.50;90.50;;;;;;5023325;28;20053;-76
2022/08/30 07:34:43;;;;;;;8.85;6.28;;;17.50;90.20;;;;;;5020000;28;20053;-74
2022/08/30 07:37:10;;;;;;;7.28;5.70;;;17.50;90.40;;;;;;5031637;28;20088;-75
2022/08/30 07:39:39;;;;;;;9.60;4.95;;;17.50;90.30;;;;;;5009836;28;20620;-72
2022/08/30 07:42:06;;;;;;;5.72;3.63;;;17.60;90.30;;;;;;4990765;28;20448;-72
2022/08/30 07:44:33;;;;;;;6.65;3.50;;;17.60;90.20;;;;;;5022141;28;20076;-71
2022/08/30 07:47:00;;;;;;;5.00;3.45;;;17.60;90.00;;;;;;5023419;28;20058;-72
2022/08/30 07:49:27;;;;;;;7.45;4.53;;;17.60;89.90;;;;;;5042627;28;20048;-71
2022/08/30 07:51:56;;;;;;;7.82;5.50;;;17.60;89.50;;;;;;5018063;28;20053;-71
2022/08/30 07:54:23;;;;;;;8.75;5.07;;;17.60;89.80;;;;;;5022084;28;20560;-72
2022/08/30 07:56:54;;;;;;;7.38;5.38;;;17.70;89.80;;;;;;5045136;28;20717;-72
2022/08/30 07:59:23;;;;;;;7.60;5.45;;;17.70;89.70;;;;;;5045412;28;20042;-72
2022/08/30 08:01:50;;;;;;;7.10;5.55;;;17.70;89.60;;;;;;5020379;28;20107;-72
2022/08/30 08:04:16;;;;;;;8.35;6.03;;;17.70;89.40;;;;;;5002270;28;20119;-73
2022/08/30 08:06:44;;;;;;;7.03;5.53;;;17.80;89.30;;;;;;5016620;28;20471;-73
2022/08/30 08:09:09;;;;;;;7.18;5.60;;;17.80;89.10;;;;;;5018439;28;20054;-72
2022/08/30 08:11:35;;;;;;;7.00;5.25;;;17.70;89.10;;;;;;5013114;28;20048;-72
2022/08/30 08:14:03;;;;;;;5.45;4.30;;;17.80;88.70;;;;;;5041863;28;20048;-73
2022/08/30 08:16:31;;;;;;;6.60;4.10;;;17.90;88.60;;;;;;5015322;28;20383;-73
2022/08/30 08:18:58;;;;;;;;;;;17.90;88.20;;;;;;5022224;28;20041;-73
2022/08/30 08:21:25;;;;;;;5.53;3.60;;;17.90;87.90;;;;;;5019613;28;19924;-72
2022/08/30 08:23:52;;;;;;;7.10;3.90;;;18.00;87.80;;;;;;5004953;28;20133;-73
2022/08/30 08:26:20;;;;;;;5.28;4.30;;;18.00;87.70;;;;;;5014152;28;20056;-73
2022/08/30 08:28:47;;;;;;;7.60;4.15;;;18.00;87.40;;;;;;4995591;28;20244;-73
2022/08/30 08:31:18;;;;;;;5.63;4.05;;;18.00;87.20;;;;;;5021959;28;20053;-72
2022/08/30 08:33:46;;;;;;;8.48;5.38;;;18.10;87.10;;;;;;5046609;28;20091;-72
2022/08/30 08:36:13;;;;;;;8.88;6.32;;;18.30;86.80;;;;;;5008125;28;20050;-73
2022/08/30 08:38:40;;;;;;;11.50;6.93;;;18.30;86.50;;;;;;5044850;28;20470;-73
2022/08/30 08:41:25;;;;;;;8.90;6.75;;;18.40;86.20;;;;;;5034564;28;20060;-72
2022/08/30 08:43:53;;;;;;;14.95;6.22;;;18.40;85.70;;;;;;5023210;28;20049;-73
2022/08/30 08:46:51;;;;;;;11.68;5.40;;;18.50;85.90;;;;;;5014248;28;20060;-72
2022/08/30 08:49:18;;;;;;;7.05;5.20;;;18.60;85.30;;;;;;5056564;28;20487;-72
2022/08/30 08:54:57;;;;;;;8.48;6.72;;;18.60;85.10;;;;;;5003492;28;20512;-73
2022/08/30 08:57:24;;;;;;;7.82;6.50;;;18.60;84.60;;;;;;5059115;28;20474;-73
2022/08/30 08:59:53;;;;;;;10.10;5.55;;;18.60;84.80;;;;;;4989675;28;20361;-72
2022/08/30 09:02:33;;;;;;;9.80;4.38;;;18.70;84.60;;;;;;5021473;28;20088;-72
2022/08/30 09:05:00;;;;;;;6.50;4.95;;;18.60;84.20;;;;;;5009654;28;20049;-72
2022/08/30 09:07:34;;;;;;;6.53;4.40;;;18.60;84.10;;;;;;5022283;28;20045;-69
2022/08/30 09:10:01;;;;;;;4.45;3.72;;;18.60;84.40;;;;;;5018103;28;20079;-69
2022/08/30 09:12:28;;;;;;;4.15;3.15;;;18.60;84.40;;;;;;5042977;28;20048;-69
2022/08/30 09:15:15;;;;;;;3.55;2.60;;;18.60;84.00;;;;;;5024790;28;20586;-69
2022/08/30 09:17:58;;;;;;;5.20;2.50;;;18.60;84.00;;;;;;5015537;28;20054;-69
2022/08/30 09:20:31;;;;;;;6.47;2.58;;;18.60;83.60;;;;;;5020960;28;20061;-69
2022/08/30 09:23:10;;;;;;;3.05;2.40;;;18.70;83.70;;;;;;5020234;28;20052;-69
2022/08/30 09:25:37;;;;;;;8.80;2.35;;;18.70;82.80;;;;;;5024339;28;20064;-70
2022/08/30 09:28:12;;;;;;;2.53;1.95;;;18.80;82.60;;;;;;4986894;28;20045;-70
2022/08/30 09:30:40;;;;;;;3.53;1.90;;;18.80;82.70;;;;;;5027463;28;20135;-69
2022/08/30 09:33:27;;;;;;;;;;;19.00;82.30;;;;;;5000713;28;20103;-69
2022/08/30 09:35:53;;;;;;;2.57;1.90;;;19.10;81.90;;;;;;5022633;28;19913;-68
2022/08/30 09:38:31;;;;;;;9.05;2.10;;;19.20;80.80;;;;;;4994678;28;20295;-67
2022/08/30 09:41:01;;;;;;;3.67;2.00;;;19.30;80.40;;;;;;5017949;28;20052;-68
2022/08/30 09:43:32;;;;;;;2.13;1.55;;;19.40;80.70;;;;;;5015910;28;20049;-69
2022/08/30 09:46:01;;;;;;;2.40;1.70;;;19.50;79.90;;;;;;5016352;28;20041;-68
2022/08/30 09:48:36;;;;;;;2.30;1.88;;;19.60;79.90;;;;;;5025810;28;20501;-69
2022/08/30 09:51:08;;;;;;;2.38;1.80;;;19.50;79.10;;;;;;4999948;28;20073;-69
2022/08/30 09:53:53;;;;;;;2.22;1.70;;;19.50;79.20;;;;;;5024108;28;20542;-69
2022/08/30 09:56:57;;;;;;;3.00;1.63;;;19.50;79.40;;;;;;5005013;28;20053;-68
2022/08/30 09:59:48;;;;;;;2.42;1.70;;;19.60;79.40;;;;;;5053870;28;20045;-70
2022/08/30 10:02:39;;;;;;;3.25;2.05;;;19.80;79.20;;;;;;5024815;28;20386;-69
2022/08/30 10:05:43;;;;;;;3.40;1.90;;;20.00;78.60;;;;;;5004483;28;20111;-69
2022/08/30 10:08:33;;;;;;;4.20;1.40;;;20.10;77.80;;;;;;5022323;28;20123;-69
2022/08/30 10:11:27;;;;;;;5.88;1.60;;;20.30;78.00;;;;;;5017374;28;20116;-68
2022/08/30 10:14:30;;;;;;;3.92;2.25;;;20.50;77.20;;;;;;5032091;28;20538;-68
2022/08/30 10:17:24;;;;;;;2.72;1.80;;;20.60;75.20;;;;;;5021116;28;20796;-69
2022/08/30 10:20:30;;;;;;;3.80;1.60;;;20.60;75.90;;;;;;5012151;28;20073;-69
2022/08/30 10:23:15;;;;;;;2.17;1.60;;;20.80;75.80;;;;;;5021589;28;20439;-68
2022/08/30 10:25:48;;;;;;;2.72;1.55;;;20.80;74.70;;;;;;5022816;28;20080;-69
2022/08/30 10:28:45;;;;;;;3.92;2.00;;;21.00;74.10;;;;;;5005283;28;20045;-69
2022/08/30 10:31:31;;;;;;;2.35;1.50;;;21.20;72.30;;;;;;5035802;28;20387;-68
2022/08/30 10:34:04;;;;;;;1.90;1.50;;;21.30;73.60;;;;;;4999022;28;20116;-69
2022/08/30 10:36:43;;;;;;;3.35;1.50;;;21.40;73.30;;;;;;5009341;28;20104;-69
2022/08/30 10:39:15;;;;;;;3.92;1.42;;;21.50;72.00;;;;;;5021758;28;20046;-69
2022/08/30 10:41:45;;;;;;;2.15;1.42;;;21.60;72.30;;;;;;5024242;28;20056;-69
2022/08/30 10:44:29;;;;;;;1.83;1.38;;;21.80;70.70;;;;;;5040488;28;20374;-69
2022/08/30 10:47:33;;;;;;;1.45;1.30;;;21.90;71.40;;;;;;5025238;28;20056;-69
2022/08/30 10:50:14;;;;;;;2.22;1.60;;;21.90;69.50;;;;;;5017023;28;20060;-69
2022/08/30 10:53:10;;;;;;;6.30;1.40;;;22.00;70.30;;;;;;4999333;28;20144;-70
2022/08/30 10:56:04;;;;;;;1.65;1.13;;;22.00;70.30;;;;;;5022480;28;20099;-69
2022/08/30 10:58:31;;;;;;;3.67;1.30;;;22.10;69.40;;;;;;5020855;28;20435;-69
2022/08/30 11:01:25;;;;;;;1.70;1.50;;;22.20;68.90;;;;;;5009323;28;20041;-72
2022/08/30 11:04:23;;;;;;;1.58;1.38;;;22.30;67.60;;;;;;5024436;28;20112;-71
2022/08/30 11:07:06;;;;;;;1.58;1.20;;;22.30;64.80;;;;;;5021408;28;20049;-69
2022/08/30 11:10:06;;;;;;;1.60;1.15;;;22.50;66.00;;;;;;5012453;28;20076;-69
2022/08/30 11:13:11;;;;;;;1.90;1.13;;;22.70;65.90;;;;;;5038524;28;20046;-69
2022/08/30 11:16:10;;;;;;;3.17;1.30;;;22.90;67.20;;;;;;5042637;28;20098;-70
2022/08/30 11:18:47;;;;;;;1.40;1.30;;;23.00;66.20;;;;;;5023778;28;20045;-68
2022/08/30 11:21:38;;;;;;;3.03;1.50;;;23.00;61.70;;;;;;5030844;28;20111;-69
2022/08/30 11:24:16;;;;;;;2.00;1.23;;;23.10;63.70;;;;;;5020545;28;20048;-71
2022/08/30 11:26:48;;;;;;;2.83;1.50;;;23.30;62.50;;;;;;5026349;28;20463;-74
2022/08/30 11:29:43;;;;;;;3.13;1.35;;;23.50;61.10;;;;;;5018082;28;20471;-72
2022/08/30 11:32:14;;;;;;;2.28;1.20;;;23.70;62.30;;;;;;5021962;28;20702;-72
2022/08/30 11:34:54;;;;;;;1.83;1.10;;;23.90;59.80;;;;;;5041980;28;20069;-72
2022/08/30 11:37:42;;;;;;;2.03;1.27;;;24.00;61.90;;;;;;5002994;28;20120;-72
2022/08/30 11:40:25;;;;;;;1.60;1.10;;;24.10;58.70;;;;;;5022842;28;20041;-69
2022/08/30 11:42:55;;;;;;;1.92;1.17;;;24.00;57.50;;;;;;5023905;28;20111;-69
2022/08/30 11:45:36;;;;;;;2.97;1.65;;;24.10;58.20;;;;;;4992124;28;20123;-69
2022/08/30 11:48:08;;;;;;;1.83;1.10;;;24.30;59.40;;;;;;5025578;28;20048;-69
2022/08/30 11:50:58;;;;;;;1.35;0.98;;;24.40;57.40;;;;;;5011168;28;20120;-69
2022/08/30 11:53:26;;;;;;;1.65;1.00;;;24.20;57.60;;;;;;5015409;28;20083;-69
2022/08/30 11:55:58;;;;;;;2.75;0.93;;;24.30;57.10;;;;;;5057461;28;20438;-70
2022/08/30 11:58:52;;;;;;;2.45;1.00;;;24.40;58.00;;;;;;5024892;28;20430;-69
2022/08/30 12:01:30;;;;;;;5.85;1.27;;;24.50;55.30;;;;;;5020425;28;20049;-69
2022/08/30 12:04:16;;;;;;;1.30;0.82;;;24.70;56.60;;;;;;5023142;28;20348;-70
2022/08/30 12:06:44;;;;;;;2.83;1.05;;;24.80;56.70;;;;;;5022612;28;20125;-69
2022/08/30 12:09:12;;;;;;;3.07;1.00;;;24.90;56.90;;;;;;5022699;28;20049;-68
2022/08/30 12:11:55;;;;;;;8.70;1.15;;;24.70;55.60;;;;;;5021265;28;20294;-69
2022/08/30 12:14:36;;;;;;;1.13;0.75;;;24.50;55.60;;;;;;5028707;28;20053;-69
2022/08/30 12:20:10;;;;;;;1.35;0.90;;;24.50;55.70;;;;;;4989663;28;20065;-69
2022/08/30 12:22:39;;;;;;;2.25;0.90;;;24.40;54.60;;;;;;5025440;28;20103;-69
2022/08/30 12:25:27;;;;;;;1.50;0.80;;;24.40;55.30;;;;;;5027758;28;20037;-70
2022/08/30 12:28:21;;;;;;;3.53;1.00;;;24.60;57.10;;;;;;4979417;28;20046;-70
2022/08/30 12:30:52;;;;;;;2.72;0.90;;;25.00;57.00;;;;;;5014283;28;20037;-69
2022/08/30 12:33:39;;;;;;;1.95;0.90;;;25.10;55.70;;;;;;5022007;28;20052;-68
2022/08/30 12:36:10;;;;;;;1.20;0.82;;;25.10;55.70;;;;;;5005856;28;20136;-68
2022/08/30 12:38:37;;;;;;;3.45;0.88;;;25.20;54.00;;;;;;5028276;28;20047;-70
2022/08/30 12:41:04;;;;;;;1.23;0.73;;;25.10;52.90;;;;;;5028161;28;20088;-74
2022/08/30 12:43:34;;;;;;;1.05;0.82;;;25.10;53.60;;;;;;5024954;28;20219;-74
2022/08/30 12:46:04;;;;;;;2.42;0.80;;;25.10;53.60;;;;;;5023795;28;20581;-74
2022/08/30 12:48:35;;;;;;;1.58;0.73;;;24.90;52.10;;;;;;5024415;28;20053;-74
2022/08/30 12:51:03;;;;;;;1.85;0.70;;;25.10;53.80;;;;;;5021412;28;20056;-74
2022/08/30 12:53:44;;;;;;;0.60;0.60;;;25.30;52.70;;;;;;5003929;28;20053;-73
2022/08/30 12:56:13;;;;;;;0.93;0.70;;;25.20;53.30;;;;;;5008387;28;20360;-75
2022/08/30 12:58:51;;;;;;;6.28;0.77;;;25.00;53.20;;;;;;5029308;28;20045;-74
2022/08/30 13:01:28;;;;;;;1.55;0.80;;;24.90;55.10;;;;;;4995078;28;20391;-74
2022/08/30 13:04:17;;;;;;;1.52;0.63;;;24.90;54.90;;;;;;4974854;28;20140;-73
2022/08/30 13:06:57;;;;;;;2.88;0.80;;;24.70;55.20;;;;;;5028640;28;20053;-75
2022/08/30 13:09:41;;;;;;;2.70;0.90;;;24.50;54.50;;;;;;4990805;28;20049;-74
2022/08/30 13:12:19;;;;;;;3.38;0.80;;;24.80;54.20;;;;;;4994670;28;20041;-74
2022/08/30 13:14:46;;;;;;;1.23;0.70;;;25.50;52.60;;;;;;5044927;28;20064;-74
2022/08/30 13:17:17;;;;;;;1.53;0.80;;;26.60;48.50;;;;;;5027370;28;20045;-74